Mayfield Village, Ohio
Current Conditions -  °F | °C
As of 9:45 AM on Wednesday 26 Nov 2014 (Local Time) from KCGF Reporting Station
Overcast Overcast  
Wind Chill: 31°   Ceiling: 3000
Heat Index: 36°   Visibility: 8mi
Dew Point: 28°   Wind: 6mph
Humidity: 75%   Direction: 60°ENE
Pressure: 30.12"   Gusts: NA
Location:  41.5545°N, 81.4746°W
Report Text: KCGF 261445Z 06005KT 8SM OVC030 02/M02 A3012
Loading
Personal Weather Stations






























Interactive Weather Map New forecast layout! Learn more

10-Day Weather Forecast

Advertisements
Track Severe Weather on mobile